Le Raizet Airport, Guadeloupe

10:16 PM AST on July 28, 2016 (GMT -0400)
Aéroport Raizet | | Change Station

Elev 16 ft 16.27 °N, 61.52 °W | Updated 38 seconds ago

Scattered Clouds
Scattered Clouds
79.5 °F
Feels Like 84 °F
N
1.6
Wind Variable Wind from South
Gusts 2.9 mph

Today
High -- | Low -- °F
--% Chance of Precip.
Yesterday
High -- | Low -- °F
Precip. -- in
Pressure 30.01 in
Visibility 6.2 miles
Clouds Scattered Clouds 2300 ft
Scattered Clouds 3000 ft
Heat Index 84 °F
Dew Point 75 °F
Humidity 85%
Rainfall 0.50 in
Snow Depth Not available.
5:46 AM 6:38 PM
Waning Crescent, 26% visible
METAR TFFR 290200Z AUTO 12004KT 9999 SCT023 SCT030 26/24 Q1016
Pressure 30.01 in
Visibility 6.2 miles
Clouds Scattered Clouds 2300 ft
Scattered Clouds 3000 ft
Heat Index 84 °F
Dew Point 75 °F
Humidity 85%
Rainfall 0.50 in
Snow Depth Not available.
5:46 AM 6:38 PM
Waning Crescent, 26% visible
METAR TFFR 290200Z AUTO 12004KT 9999 SCT023 SCT030 26/24 Q1016

10-Day Weather Forecast

No radar image for this location.
×

Almanac

Astronomy

Jul. 28, 2016 Rise Set
Actual Time
Civil Twilight
Nautical Twilight
Astronomical Twilight
Moon
Length of Visible Light
Length of Day
Tomorrow will be .
, % of the Moon is Illuminated

Today's Extremes

Country Highs Country Lows

Community

WunderPhotos

Upload Photos

1,928,266 photos uploaded!

WunderBlog® & News

Nearby

Air Quality

  Air Quality AQ Index Pollutant
Not available.

Snow Depth

Station Depth Elevation

Earthquake Activity

City Distance Mag. Time & Date
Minimum magnitude displayed is 2.5.

Coastal Water Temperatures

Place Temperature

Stations

Nearby Weather Stations

Station Location Temp. Windchill Dew Point Humidity Wind Precip. Elev Updated Type